createdAt,value
2023-05-03T00:00:23.788Z,18.28
2023-05-03T00:02:54.023Z,18.28
2023-05-03T00:05:21.543Z,18.22
2023-05-03T00:07:49.551Z,18.23
2023-05-03T00:10:17.255Z,18.13
2023-05-03T00:12:44.730Z,18.18
2023-05-03T00:15:12.143Z,18.17
2023-05-03T00:17:39.931Z,18.18
2023-05-03T00:20:08.143Z,18.21
2023-05-03T00:22:36.550Z,18.24
2023-05-03T00:25:04.843Z,18.21
2023-05-03T00:27:32.406Z,18.11
2023-05-03T00:30:00.023Z,18.19
2023-05-03T00:32:28.441Z,18.21
2023-05-03T00:34:57.169Z,18.11
2023-05-03T00:37:25.458Z,18.17
2023-05-03T00:39:53.675Z,18.14
2023-05-03T00:42:21.086Z,18.15
2023-05-03T00:44:48.439Z,18.22
2023-05-03T00:47:16.847Z,18.21
2023-05-03T00:49:44.923Z,18.06
2023-05-03T00:52:12.413Z,18.15
2023-05-03T00:54:40.408Z,18.17
2023-05-03T00:57:07.912Z,18.34
2023-05-03T00:59:35.389Z,18.13
2023-05-03T01:02:03.241Z,18.17
2023-05-03T01:04:30.845Z,18.14
2023-05-03T01:07:20.017Z,18.20
2023-05-03T01:10:00.945Z,18.21
2023-05-03T01:12:34.318Z,18.17
2023-05-03T01:15:20.749Z,18.17
2023-05-03T01:17:51.762Z,18.23
2023-05-03T01:20:24.837Z,18.16
2023-05-03T01:22:57.956Z,18.20
2023-05-03T01:25:29.156Z,18.23
2023-05-03T01:27:56.580Z,18.08
2023-05-03T01:30:27.065Z,18.14
2023-05-03T01:33:16.176Z,18.25
2023-05-03T01:35:56.156Z,18.13
2023-05-03T01:38:23.953Z,18.12
2023-05-03T01:40:53.639Z,18.10
2023-05-03T01:43:21.501Z,18.19
2023-05-03T01:45:49.869Z,18.09
2023-05-03T01:48:18.840Z,18.11
2023-05-03T01:50:46.913Z,18.08
2023-05-03T01:53:14.797Z,18.05
2023-05-03T01:55:43.318Z,18.08
2023-05-03T01:58:12.634Z,18.15
2023-05-03T02:00:40.458Z,18.12
2023-05-03T02:03:08.367Z,18.12
2023-05-03T02:05:36.124Z,18.18
2023-05-03T02:08:03.576Z,18.19
2023-05-03T02:10:31.281Z,18.22
2023-05-03T02:12:58.863Z,18.16
2023-05-03T02:15:26.421Z,18.06
2023-05-03T02:17:54.361Z,18.15
2023-05-03T02:20:22.091Z,18.09
2023-05-03T02:22:49.502Z,18.12
2023-05-03T02:25:17.317Z,18.10
2023-05-03T02:27:45.514Z,18.13
2023-05-03T02:30:13.517Z,18.11
2023-05-03T02:32:42.348Z,18.12
2023-05-03T02:35:10.615Z,18.00
2023-05-03T02:37:38.089Z,18.13
2023-05-03T02:40:09.568Z,18.10
2023-05-03T02:42:37.204Z,18.09
2023-05-03T02:45:05.707Z,18.00
2023-05-03T02:47:33.552Z,17.94
2023-05-03T02:50:01.338Z,18.00
2023-05-03T02:52:31.067Z,17.98
2023-05-03T02:54:58.901Z,17.99
2023-05-03T02:57:26.839Z,18.15
2023-05-03T02:59:54.674Z,18.14
2023-05-03T03:02:22.734Z,18.17
2023-05-03T03:04:50.291Z,18.13
2023-05-03T03:07:17.899Z,17.96
2023-05-03T03:09:45.755Z,18.04
2023-05-03T03:12:13.277Z,18.00
2023-05-03T03:14:41.641Z,17.93
2023-05-03T03:17:10.667Z,18.00
2023-05-03T03:19:38.118Z,17.95
2023-05-03T03:22:05.740Z,18.10
2023-05-03T03:24:34.156Z,18.14
2023-05-03T03:27:01.730Z,18.06
2023-05-03T03:29:31.511Z,18.08
2023-05-03T03:32:01.083Z,18.07
2023-05-03T03:34:28.797Z,18.03
2023-05-03T03:36:56.430Z,18.03
2023-05-03T03:39:24.866Z,18.02
2023-05-03T03:41:52.558Z,18.03
2023-05-03T03:44:20.196Z,18.05
2023-05-03T03:46:48.059Z,17.96
2023-05-03T03:49:16.906Z,18.04
2023-05-03T03:51:44.422Z,18.03
2023-05-03T03:54:12.597Z,18.04
2023-05-03T03:56:40.461Z,18.05
2023-05-03T03:59:08.199Z,17.95
2023-05-03T04:01:36.090Z,18.04
2023-05-03T04:04:04.725Z,17.97
2023-05-03T04:06:33.458Z,17.98
2023-05-03T04:09:02.010Z,17.96
2023-05-03T04:11:31.722Z,17.82
2023-05-03T04:13:59.698Z,17.94
2023-05-03T04:16:27.359Z,17.98
2023-05-03T04:18:55.257Z,18.04
2023-05-03T04:21:22.916Z,18.03
2023-05-03T04:23:50.872Z,18.11
2023-05-03T04:26:30.769Z,17.99
2023-05-03T04:29:01.075Z,18.11
2023-05-03T04:31:29.978Z,18.01
2023-05-03T04:33:58.041Z,18.11
2023-05-03T04:36:26.596Z,17.99
2023-05-03T04:38:54.808Z,18.09
2023-05-03T04:41:24.368Z,18.14
2023-05-03T04:43:52.231Z,18.07
2023-05-03T04:46:20.419Z,18.12
2023-05-03T04:48:48.502Z,18.15
2023-05-03T04:51:15.923Z,18.12
2023-05-03T04:53:43.738Z,18.12
2023-05-03T04:56:11.793Z,18.13
2023-05-03T04:58:39.799Z,18.23
2023-05-03T05:01:08.207Z,18.28
2023-05-03T05:03:35.895Z,18.25
2023-05-03T05:06:03.658Z,18.22
2023-05-03T05:08:31.913Z,18.13
2023-05-03T05:11:01.997Z,18.21
2023-05-03T05:13:29.999Z,18.36
2023-05-03T05:15:57.803Z,18.46
2023-05-03T05:18:25.255Z,18.35
2023-05-03T05:20:53.146Z,18.45
2023-05-03T05:23:20.992Z,18.51
2023-05-03T05:25:48.727Z,18.54
2023-05-03T05:28:16.235Z,18.59
2023-05-03T05:30:44.569Z,18.70
2023-05-03T05:33:12.587Z,18.72
2023-05-03T05:35:40.344Z,18.78
2023-05-03T05:38:08.549Z,18.81
2023-05-03T05:40:36.486Z,18.94
2023-05-03T05:43:04.336Z,18.90
2023-05-03T05:45:34.479Z,18.96
2023-05-03T05:48:02.747Z,19.03
2023-05-03T05:50:31.600Z,19.02
2023-05-03T05:53:00.290Z,18.96
2023-05-03T05:55:28.260Z,19.05
2023-05-03T05:57:56.219Z,19.01
2023-05-03T06:00:25.169Z,19.12
2023-05-03T06:02:53.110Z,19.04
2023-05-03T06:05:20.975Z,19.03
2023-05-03T06:07:49.474Z,19.07
2023-05-03T06:10:17.758Z,18.97
2023-05-03T06:12:45.577Z,18.99
2023-05-03T06:15:13.457Z,18.94
2023-05-03T06:17:41.496Z,19.08
2023-05-03T06:20:12.408Z,19.03
2023-05-03T06:22:40.499Z,19.10
2023-05-03T06:25:09.694Z,18.96
2023-05-03T06:27:38.429Z,18.93
2023-05-03T06:30:06.828Z,19.12
2023-05-03T06:32:34.710Z,19.10
2023-05-03T06:35:03.574Z,19.23
2023-05-03T06:37:31.196Z,19.29
2023-05-03T06:39:58.895Z,19.05
2023-05-03T06:42:26.324Z,19.10
2023-05-03T06:45:02.658Z,19.35
2023-05-03T06:47:30.503Z,19.23
2023-05-03T06:49:57.930Z,19.30
2023-05-03T06:52:26.811Z,19.39
2023-05-03T06:54:54.858Z,19.40
2023-05-03T06:57:22.863Z,19.40
2023-05-03T06:59:50.698Z,19.49
2023-05-03T07:02:18.996Z,19.49
2023-05-03T07:04:46.565Z,19.65
2023-05-03T07:07:15.845Z,19.50
2023-05-03T07:09:44.163Z,19.86
2023-05-03T07:12:12.044Z,20.17
2023-05-03T07:14:40.595Z,20.14
2023-05-03T07:17:08.992Z,20.33
2023-05-03T07:19:37.421Z,20.39
2023-05-03T07:22:04.820Z,20.43
2023-05-03T07:24:32.472Z,20.39
2023-05-03T07:26:59.860Z,20.35
2023-05-03T07:29:27.578Z,20.57
2023-05-03T07:31:55.458Z,20.51
2023-05-03T07:34:22.910Z,20.48
2023-05-03T07:36:50.414Z,20.43
2023-05-03T07:39:18.824Z,20.51
2023-05-03T07:41:46.924Z,20.64
2023-05-03T07:44:14.293Z,20.82
2023-05-03T07:46:41.966Z,21.11
2023-05-03T07:49:09.334Z,21.27
2023-05-03T07:51:37.191Z,21.44
2023-05-03T07:54:05.356Z,21.57
2023-05-03T07:56:32.750Z,21.81
2023-05-03T07:59:09.275Z,21.94
2023-05-03T08:01:38.386Z,21.84
2023-05-03T08:04:06.591Z,21.56
2023-05-03T08:06:35.725Z,21.42
2023-05-03T08:09:04.673Z,21.53
2023-05-03T08:11:32.641Z,21.59
2023-05-03T08:14:00.155Z,21.71
2023-05-03T08:16:27.749Z,21.93
2023-05-03T08:18:55.471Z,21.92
2023-05-03T08:21:24.785Z,22.24
2023-05-03T08:23:53.308Z,22.37
2023-05-03T08:26:22.183Z,22.25
2023-05-03T08:28:50.346Z,22.25
2023-05-03T08:31:18.073Z,22.15
2023-05-03T08:33:45.855Z,22.17
2023-05-03T08:36:13.281Z,22.23
2023-05-03T08:38:41.243Z,22.32
2023-05-03T08:41:30.877Z,22.30
2023-05-03T08:43:59.762Z,22.40
2023-05-03T08:46:28.398Z,22.45
2023-05-03T08:48:56.112Z,22.53
2023-05-03T08:51:24.644Z,22.63
2023-05-03T08:53:52.451Z,23.04
2023-05-03T08:56:41.143Z,23.15
2023-05-03T08:59:10.638Z,23.25
2023-05-03T09:01:40.008Z,23.30
2023-05-03T09:04:08.671Z,23.19
2023-05-03T09:06:36.991Z,23.09
2023-05-03T09:09:07.552Z,23.06
2023-05-03T09:11:36.884Z,22.92
2023-05-03T09:14:11.926Z,22.85
2023-05-03T09:16:40.992Z,22.92
2023-05-03T09:19:11.610Z,22.63
2023-05-03T09:21:40.710Z,22.44
2023-05-03T09:24:18.007Z,22.45
2023-05-03T09:26:47.116Z,22.51
2023-05-03T09:29:31.790Z,22.62
2023-05-03T09:32:08.512Z,22.51
2023-05-03T09:34:37.084Z,22.49
2023-05-03T09:37:04.899Z,22.56
2023-05-03T09:39:32.741Z,22.70
2023-05-03T09:42:10.594Z,22.49
2023-05-03T09:44:44.634Z,22.55
2023-05-03T09:47:12.311Z,22.51
2023-05-03T09:49:40.013Z,22.54
2023-05-03T09:52:08.515Z,22.64
2023-05-03T09:54:36.014Z,22.65
2023-05-03T09:57:05.769Z,22.38
2023-05-03T09:59:34.370Z,22.40
2023-05-03T10:02:04.002Z,22.39
2023-05-03T10:04:43.837Z,22.55
2023-05-03T10:07:17.656Z,22.73
2023-05-03T10:09:48.680Z,22.78
2023-05-03T10:12:18.902Z,22.83
2023-05-03T10:14:47.965Z,22.96
2023-05-03T10:17:46.577Z,22.84
2023-05-03T10:20:38.931Z,22.86
2023-05-03T10:23:06.994Z,22.80
2023-05-03T10:25:36.188Z,22.90
2023-05-03T10:28:08.650Z,22.75
2023-05-03T10:30:38.294Z,22.42
2023-05-03T10:33:29.739Z,22.44
2023-05-03T10:35:59.028Z,22.55
2023-05-03T10:38:28.534Z,22.53
2023-05-03T10:40:56.734Z,22.50
2023-05-03T10:43:30.648Z,22.31
2023-05-03T10:46:02.673Z,22.12
2023-05-03T10:48:34.043Z,22.13
2023-05-03T10:51:30.783Z,22.36
2023-05-03T10:53:58.733Z,22.50
2023-05-03T10:56:26.459Z,22.22
2023-05-03T10:58:56.976Z,22.27
2023-05-03T11:01:27.030Z,22.39
2023-05-03T11:04:10.098Z,22.39
2023-05-03T11:06:41.198Z,22.41
2023-05-03T11:09:10.104Z,22.47
2023-05-03T11:11:39.957Z,22.53
2023-05-03T11:14:08.764Z,22.58
2023-05-03T11:16:37.148Z,22.60
2023-05-03T11:19:05.978Z,22.49
2023-05-03T11:21:33.402Z,22.57
2023-05-03T11:24:01.748Z,22.64
2023-05-03T11:26:35.775Z,22.50
2023-05-03T11:29:03.451Z,22.64
2023-05-03T11:31:31.874Z,22.43
2023-05-03T11:33:59.706Z,22.38
2023-05-03T11:36:27.999Z,22.31
2023-05-03T11:38:55.882Z,22.16
2023-05-03T11:41:23.349Z,22.22
2023-05-03T11:44:00.677Z,22.24
2023-05-03T11:46:37.605Z,22.30
2023-05-03T11:49:05.433Z,22.39
2023-05-03T11:51:32.912Z,22.50
2023-05-03T11:54:10.130Z,22.53
2023-05-03T11:56:52.851Z,22.62
2023-05-03T11:59:20.801Z,22.16
2023-05-03T12:01:49.538Z,22.35
2023-05-03T12:04:18.044Z,22.36
2023-05-03T12:06:52.778Z,22.20
2023-05-03T12:09:25.996Z,22.19
2023-05-03T12:11:55.306Z,22.25
2023-05-03T12:14:24.405Z,22.33
2023-05-03T12:16:53.846Z,22.34
2023-05-03T12:19:30.903Z,22.01
2023-05-03T12:24:33.406Z,22.02
2023-05-03T12:27:02.832Z,21.92
2023-05-03T12:29:35.396Z,21.73
2023-05-03T12:32:04.636Z,21.59
2023-05-03T12:34:35.440Z,21.59
2023-05-03T12:37:05.779Z,21.57
2023-05-03T12:39:34.161Z,21.67
2023-05-03T12:44:35.153Z,21.56
2023-05-03T12:47:04.144Z,21.61
2023-05-03T12:49:32.455Z,21.52
2023-05-03T12:52:34.750Z,21.28
2023-05-03T12:54:49.531Z,21.45
2023-05-03T12:57:22.952Z,21.26
2023-05-03T12:59:54.146Z,21.42
2023-05-03T13:05:00.491Z,21.34
2023-05-03T13:07:31.745Z,21.37
2023-05-03T13:12:33.159Z,21.35
2023-05-03T13:15:02.447Z,21.48
2023-05-03T13:17:31.595Z,21.45
2023-05-03T13:19:59.427Z,21.53
2023-05-03T13:22:27.198Z,21.51
2023-05-03T13:24:54.710Z,21.42
2023-05-03T13:27:22.367Z,21.40
2023-05-03T13:29:49.901Z,21.45
2023-05-03T13:32:17.579Z,21.52
2023-05-03T13:34:45.683Z,21.59
2023-05-03T13:37:18.235Z,21.59
2023-05-03T13:39:46.661Z,21.62
2023-05-03T13:42:14.387Z,21.62
2023-05-03T13:44:42.565Z,21.78
2023-05-03T13:47:10.213Z,21.55
2023-05-03T13:49:37.632Z,21.63
2023-05-03T13:52:05.048Z,21.72
2023-05-03T13:54:32.722Z,21.77
2023-05-03T13:57:00.211Z,21.38
2023-05-03T13:59:27.645Z,21.65
2023-05-03T14:01:55.576Z,21.80
2023-05-03T14:04:25.449Z,21.76
2023-05-03T14:06:52.923Z,21.85
2023-05-03T14:09:20.353Z,21.97
2023-05-03T14:11:48.196Z,22.09
2023-05-03T14:14:15.587Z,21.98
2023-05-03T14:16:43.782Z,21.83
2023-05-03T14:19:11.999Z,21.87
2023-05-03T14:21:42.022Z,21.96
2023-05-03T14:24:09.468Z,21.97
2023-05-03T14:26:37.548Z,21.90
2023-05-03T14:29:05.896Z,21.83
2023-05-03T14:31:34.357Z,21.88
2023-05-03T14:34:02.278Z,21.78
2023-05-03T14:36:34.863Z,21.64
2023-05-03T14:39:04.168Z,21.61
2023-05-03T14:41:33.208Z,21.38
2023-05-03T14:44:01.332Z,21.43
2023-05-03T14:46:29.072Z,21.62
2023-05-03T14:48:56.502Z,21.67
2023-05-03T14:51:24.068Z,21.47
2023-05-03T14:53:52.269Z,21.52
2023-05-03T14:56:19.661Z,21.50
2023-05-03T14:58:47.063Z,21.73
2023-05-03T15:01:19.634Z,21.76
2023-05-03T15:03:47.440Z,21.61
2023-05-03T15:06:16.633Z,21.64
2023-05-03T15:08:44.042Z,21.61
2023-05-03T15:11:11.584Z,21.51
2023-05-03T15:13:39.595Z,21.45
2023-05-03T15:16:07.231Z,21.69
2023-05-03T15:18:34.622Z,21.53
2023-05-03T15:21:03.312Z,21.58
2023-05-03T15:23:31.119Z,21.29
2023-05-03T15:25:59.047Z,21.09
2023-05-03T15:28:26.741Z,21.21
2023-05-03T15:30:54.194Z,21.26
2023-05-03T15:33:21.639Z,21.13
2023-05-03T15:35:49.363Z,21.17
2023-05-03T15:38:17.905Z,21.06
2023-05-03T15:40:45.521Z,21.14
2023-05-03T15:43:13.245Z,20.90
2023-05-03T15:45:40.624Z,20.98
2023-05-03T15:48:08.124Z,21.02
2023-05-03T15:50:35.807Z,20.82
2023-05-03T15:53:03.774Z,20.93
2023-05-03T15:55:31.494Z,20.89
2023-05-03T15:57:59.201Z,20.79
2023-05-03T16:00:27.115Z,20.71
2023-05-03T16:02:55.125Z,20.68
2023-05-03T16:05:22.984Z,20.51
2023-05-03T16:07:50.979Z,20.65
2023-05-03T16:10:18.808Z,20.66
2023-05-03T16:12:46.319Z,20.62
2023-05-03T16:15:13.751Z,20.75
2023-05-03T16:17:41.529Z,20.68
2023-05-03T16:20:10.656Z,20.75
2023-05-03T16:22:38.469Z,20.78
2023-05-03T16:25:12.740Z,20.84
2023-05-03T16:27:40.346Z,20.87
2023-05-03T16:30:09.227Z,20.88
2023-05-03T16:32:37.068Z,20.86
2023-05-03T16:35:04.792Z,20.80
2023-05-03T16:37:33.977Z,20.87
2023-05-03T16:40:01.522Z,20.88
2023-05-03T16:42:29.002Z,20.94
2023-05-03T16:44:56.747Z,20.85
2023-05-03T16:47:24.410Z,20.75
2023-05-03T16:49:52.137Z,20.79
2023-05-03T16:52:19.869Z,20.65
2023-05-03T16:54:47.316Z,20.47
2023-05-03T16:57:15.251Z,20.38
2023-05-03T16:59:42.946Z,20.40
2023-05-03T17:02:11.055Z,20.29
2023-05-03T17:04:38.494Z,20.20
2023-05-03T17:07:06.204Z,20.08
2023-05-03T17:09:33.557Z,20.12
2023-05-03T17:12:03.480Z,19.87
2023-05-03T17:14:31.328Z,19.84
2023-05-03T17:16:58.740Z,19.76
2023-05-03T17:19:26.658Z,19.83
2023-05-03T17:21:54.957Z,19.91
2023-05-03T17:24:22.342Z,19.91
2023-05-03T17:26:49.769Z,19.87
2023-05-03T17:29:17.471Z,19.88
2023-05-03T17:31:44.980Z,19.83
2023-05-03T17:34:12.418Z,19.91
2023-05-03T17:36:40.116Z,19.81
2023-05-03T17:39:07.724Z,19.84
2023-05-03T17:41:36.970Z,19.79
2023-05-03T17:44:04.950Z,19.77
2023-05-03T17:46:34.465Z,19.74
2023-05-03T17:49:02.581Z,19.72
2023-05-03T17:51:32.023Z,19.60
2023-05-03T17:53:59.462Z,19.67
2023-05-03T17:56:26.930Z,19.60
2023-05-03T17:58:54.691Z,19.65
2023-05-03T18:01:22.191Z,19.56
2023-05-03T18:03:50.018Z,19.42
2023-05-03T18:06:17.529Z,19.56
2023-05-03T18:08:44.943Z,19.42
2023-05-03T18:11:12.761Z,19.45
2023-05-03T18:13:41.334Z,19.12
2023-05-03T18:16:09.435Z,19.12
2023-05-03T18:18:37.509Z,19.17
2023-05-03T18:21:05.124Z,18.97
2023-05-03T18:23:33.340Z,19.01
2023-05-03T18:26:01.058Z,18.87
2023-05-03T18:28:28.529Z,18.92
2023-05-03T18:30:56.048Z,18.94
2023-05-03T18:33:24.001Z,18.89
2023-05-03T18:35:52.031Z,18.87
2023-05-03T18:38:21.350Z,18.79
2023-05-03T18:40:49.551Z,18.69
2023-05-03T18:43:17.463Z,18.68
2023-05-03T18:45:44.873Z,18.68
2023-05-03T18:48:12.635Z,18.67
2023-05-03T18:50:42.862Z,18.67
2023-05-03T18:53:10.924Z,18.56
2023-05-03T18:55:38.580Z,18.54
2023-05-03T18:58:06.096Z,18.36
2023-05-03T19:00:33.576Z,18.34
2023-05-03T19:03:01.530Z,18.20
2023-05-03T19:05:29.719Z,18.17
2023-05-03T19:07:57.170Z,18.07
2023-05-03T19:10:24.857Z,18.05
2023-05-03T19:12:53.428Z,18.16
2023-05-03T19:15:21.250Z,18.18
2023-05-03T19:17:48.927Z,18.30
2023-05-03T19:20:17.380Z,18.12
2023-05-03T19:22:44.885Z,18.16
2023-05-03T19:25:12.601Z,18.29
2023-05-03T19:27:39.980Z,18.27
2023-05-03T19:30:07.935Z,18.37
2023-05-03T19:32:38.859Z,18.34
2023-05-03T19:35:08.761Z,18.37
2023-05-03T19:37:36.778Z,18.34
2023-05-03T19:40:05.526Z,18.38
2023-05-03T19:42:33.318Z,18.40
2023-05-03T19:45:03.566Z,18.40
2023-05-03T19:47:31.769Z,18.37
2023-05-03T19:49:59.597Z,18.48
2023-05-03T19:52:27.310Z,18.47
2023-05-03T19:54:56.321Z,18.44
2023-05-03T19:57:24.008Z,18.46
2023-05-03T19:59:51.706Z,18.30
2023-05-03T20:02:20.300Z,18.43
2023-05-03T20:04:49.461Z,18.41
2023-05-03T20:07:17.053Z,18.34
2023-05-03T20:09:44.478Z,18.27
2023-05-03T20:12:13.624Z,18.22
2023-05-03T20:14:41.277Z,18.39
2023-05-03T20:17:08.680Z,18.34
2023-05-03T20:19:36.940Z,18.38
2023-05-03T20:22:04.456Z,18.45
2023-05-03T20:24:31.940Z,18.46
2023-05-03T20:26:59.651Z,18.48
2023-05-03T20:29:27.356Z,18.53
2023-05-03T20:31:54.866Z,18.41
2023-05-03T20:34:22.595Z,18.55
2023-05-03T20:36:51.570Z,18.62
2023-05-03T20:39:19.178Z,18.56
2023-05-03T20:41:46.885Z,18.39
2023-05-03T20:44:14.591Z,18.39
2023-05-03T20:46:42.289Z,18.48
2023-05-03T20:49:10.692Z,18.40
2023-05-03T20:51:38.055Z,18.32
2023-05-03T20:54:05.516Z,18.23
2023-05-03T20:56:33.564Z,18.27
2023-05-03T20:59:01.048Z,18.29
2023-05-03T21:01:28.566Z,18.35
2023-05-03T21:03:56.790Z,18.27
2023-05-03T21:06:24.299Z,18.34
2023-05-03T21:08:52.809Z,18.27
2023-05-03T21:11:20.598Z,18.12
2023-05-03T21:13:48.127Z,18.18
2023-05-03T21:16:15.580Z,18.15
2023-05-03T21:18:43.343Z,18.05
2023-05-03T21:21:10.707Z,17.93
2023-05-03T21:23:38.337Z,18.18
2023-05-03T21:26:06.355Z,18.19
2023-05-03T21:28:33.726Z,18.19
2023-05-03T21:31:01.385Z,18.12
2023-05-03T21:33:29.079Z,18.11
2023-05-03T21:35:56.581Z,18.18
2023-05-03T21:38:24.135Z,18.04
2023-05-03T21:40:51.784Z,18.09
2023-05-03T21:43:19.848Z,18.18
2023-05-03T21:45:48.261Z,18.20
2023-05-03T21:48:15.986Z,18.14
2023-05-03T21:50:43.559Z,18.14
2023-05-03T21:53:10.898Z,18.09
2023-05-03T21:55:38.602Z,18.12
2023-05-03T21:58:05.954Z,17.99
2023-05-03T22:00:36.033Z,18.04
2023-05-03T22:03:03.940Z,18.00
2023-05-03T22:05:31.817Z,18.03
2023-05-03T22:07:59.898Z,18.03
2023-05-03T22:10:27.883Z,17.99
2023-05-03T22:12:55.391Z,18.07
2023-05-03T22:15:22.900Z,17.91
2023-05-03T22:17:50.683Z,17.96
2023-05-03T22:20:18.059Z,17.91
2023-05-03T22:22:45.420Z,17.90
2023-05-03T22:25:22.905Z,17.88
2023-05-03T22:27:51.142Z,17.89
2023-05-03T22:30:19.462Z,17.90
2023-05-03T22:32:47.584Z,17.73
2023-05-03T22:35:15.439Z,17.80
2023-05-03T22:37:43.102Z,17.85
2023-05-03T22:40:10.781Z,17.82
2023-05-03T22:42:38.204Z,17.74
2023-05-03T22:45:06.358Z,17.64
2023-05-03T22:47:34.009Z,17.62
2023-05-03T22:50:01.905Z,17.64
2023-05-03T22:52:31.250Z,17.70
2023-05-03T22:54:58.791Z,17.54
2023-05-03T22:57:26.216Z,17.42
2023-05-03T22:59:53.930Z,17.35
2023-05-03T23:02:21.568Z,17.36
2023-05-03T23:04:49.095Z,17.42
2023-05-03T23:07:16.973Z,17.35
2023-05-03T23:09:47.778Z,17.32
2023-05-03T23:12:15.326Z,17.34
2023-05-03T23:14:45.750Z,17.45
2023-05-03T23:17:13.721Z,17.39
2023-05-03T23:19:41.650Z,17.34
2023-05-03T23:22:09.545Z,17.36
2023-05-03T23:24:37.112Z,17.23
2023-05-03T23:27:04.492Z,17.28
2023-05-03T23:29:32.616Z,17.24
2023-05-03T23:32:00.756Z,17.20
2023-05-03T23:34:28.515Z,17.26
2023-05-03T23:36:56.315Z,17.24
2023-05-03T23:39:23.990Z,17.25
2023-05-03T23:41:51.573Z,17.14
2023-05-03T23:44:19.299Z,17.18
2023-05-03T23:46:46.725Z,17.20
2023-05-03T23:49:14.116Z,17.18
2023-05-03T23:51:41.799Z,17.18
2023-05-03T23:54:09.410Z,17.21
2023-05-03T23:56:36.823Z,17.13
2023-05-03T23:59:05.775Z,17.23
